Aviation Digital Data Service (ADDS)

Output produced by METARs form (1709 UTC 24 April 2017)
found at http://www.aviationweather.gov/adds/metars/
 
LTAF 241650Z 23007KT CAVOK 15/07 Q1017 NOSIG RMK RWY23 25008KT
TAF LTAF 241640Z 2418/2518 VRB02KT CAVOK
       
LTCP 241250Z 23008KT CAVOK 19/M03 Q1014
TAF LTCP 241340Z 2415/2424 VRB02KT CAVOK
       
LTBJ 241650Z 33008KT 9999 FEW030 16/04 Q1021 NOSIG RMK RWY16 33009KT
TAF LTBJ 241640Z 2418/2518 VRB02KT CAVOK 
     BECMG 2510/2512 35012KT
       
TAF LTAH 241340Z 2415/2424 31008KT 9999 SCT035 
     BECMG 2416/2418 CAVOK
       
LTCO 241250Z 24014G24KT 220V280 9999 SCT070 14/M07 Q1013
TAF LTCO 241340Z 2415/2424 26015KT CAVOK 
     BECMG 2415/2417 VRB02KT
       
TAF LTBT 241340Z 2415/2424 30009KT 9999 FEW040 SCT100 
     BECMG 2417/2419 CAVOK
       
TAF LTAE 241640Z 2418/2503 28008KT CAVOK
       
LTBY 241650Z 31006KT 9999 SCT040 06/00 Q1022
TAF LTBY 241640Z 2418/2503 VRB02KT CAVOK
       
LTAI 241650Z 07005KT 9999 FEW030 16/10 Q1018 NOSIG RMK RWY18C 08005KT 040V110 RWY36R 07005KT RWY18L 08004KT
TAF LTAI 241640Z 2418/2518 34008KT CAVOK 
     BECMG 2506/2510 18010KT SCT030 
     BECMG 2515/2518 34008KT CAVOK
       
LTBA 241650Z 18004KT 160V230 CAVOK 11/02 Q1024 NOSIG RMK RWY17L 18003KT RWY05 00000KT RWY23 16004KT
TAF LTBA 241640Z 2418/2524 VRB02KT CAVOK 
     TEMPO 2508/2512 21012KT 
     BECMG 2512/2516 01012KT
       
LTBF 241650Z 01006KT CAVOK 11/03 Q1023 NOSIG
TAF LTBF 241640Z 2418/2503 01005KT CAVOK
       
TAF LTBG 241640Z 2418/2503 VRB02KT 9999 FEW035 
     BECMG 2418/2419 CAVOK
       
LTCJ 241650Z 35002KT CAVOK 12/05 Q1014 RMK RWY20 28003KT
TAF LTCJ 241640Z 2418/2518 VRB02KT CAVOK
       
LTBH 241650Z 03005KT CAVOK 13/02 Q1022
TAF LTBH 241640Z 2418/2503 VRB02KT CAVOK
       
LTAY 241650Z 31004KT 9999 SCT035 11/02 Q1021
TAF LTAY 241640Z 2418/2503 VRB02KT 9999 SCT030 
     BECMG 2420/2422 CAVOK
       
LTFH 241650Z 13008KT 8000 -SHRA BKN028 BKN080 07/05 Q1025 NOSIG
TAF LTFH 241640Z 2418/2503 17009KT 9999 SCT030 BKN090 
     TEMPO 2418/2421 -SHRA BKN028 BKN080
       
TAF LTBL 241640Z 2418/2503 30007KT CAVOK
       
LTBU 241650Z 16004KT 9999 FEW035 11/04 Q1023 RMK RWY23 18003KT 140V210
TAF LTBU 241640Z 2418/2518 VRB02KT CAVOK 
     BECMG 2507/2510 13012KT
       
LTBS 241650Z 25008KT 9999 FEW030 19/07 Q1018 NOSIG RMK RWY19 22006KT
TAF LTBS 241640Z 2418/2518 35009KT CAVOK 
     BECMG 2508/2510 21012KT FEW030 BKN180
       
LTCC 241650Z 28005KT CAVOK 14/01 Q1014 NOSIG RMK RWY16 28005KT
TAF LTCC 241640Z 2418/2518 29008KT CAVOK
       
LTFD 241650Z VRB01KT 9999 FEW035 14/08 Q1022
TAF LTFD 241640Z 2418/2503 06005KT CAVOK
       
LTCA 241650Z 27006KT 230V310 CAVOK 12/M03 Q1015 NOSIG
TAF LTCA 241640Z 2418/2503 30009KT CAVOK
       
LTAT 241650Z 28008KT 270V080 CAVOK 12/M03 Q1016 NOSIG RMK RWY03 29009KT
TAF LTAT 241640Z 2418/2518 31008KT CAVOK
       
LTAU 241650Z 00000KT 9999 SCT040 10/M03 Q1020 BECMG 30012KT
TAF LTAU 241640Z 2418/2518 30012KT 9999 SCT040 
     BECMG 2418/2421 VRB02KT 
     BECMG 2421/2424 CAVOK
       
LTCD 241650Z 28008KT 9999 FEW045 11/M06 Q1016 NOSIG
TAF LTCD 241640Z 2418/2503 31008KT 9999 FEW045 
     BECMG 2501/2503 CAVOK
       
LTCE 241650Z 28005KT 9999 FEW035 04/M07 Q1016 NOSIG RMK RWY08R 24006KT RWY26R 28006KT RWY08L 26007KT
TAF LTCE 241640Z 2418/2518 VRB02KT CAVOK 
     BECMG 2506/2508 SCT035
       
LTAC 241650Z 23004KT 120V290 9999 SCT040 05/M01 Q1021 NOSIG RMK RWY21L 25005KT RWY03L 23002KT RWY21R 27005KT
TAF LTAC 241640Z 2418/2518 VRB02KT 9999 SCT040 
     BECMG 2418/2421 CAVOK 
     TEMPO 2502/2506 4000 BR 
     BECMG 2506/2509 SCT040 
     BECMG 2514/2516 CAVOK
       
TAF LTBI 241640Z 2418/2503 VRB02KT CAVOK
       
TAF LTAD 241640Z 2418/2503 VRB02KT CAVOK
       
TAF LTBK 241340Z 2415/2424 35012KT 9999 SCT030 
     BECMG 2415/2417 VRB02KT CAVOK
       
TAF LTAB 241640Z 2418/2503 VRB02KT CAVOK
       
LTAG 241650Z 24008KT CAVOK 16/06 Q1016 NOSIG
TAF LTAG 241640Z 2418/2518 24008KT CAVOK 
     BECMG 2421/2423 02012KT 
     BECMG 2506/2508 VRB02KT
       
LTCN 241650Z 29015KT CAVOK 16/M01 Q1015 NOSIG
TAF LTCN 241640Z 2418/2503 28009KT CAVOK
       
TAF LTFA 241340Z 2415/2424 30009KT 9999 FEW040 SCT100 
     BECMG 2417/2419 CAVOK
       
LTAZ 241650Z 28007KT 9999 SCT040 09/M00 Q1021 RMK RWY29 07007KT
TAF LTAZ 241640Z 2418/2518 34012KT 9999 SCT040 
     BECMG 2420/2423 VRB02KT CAVOK
       
LTCF 241650Z 05013KT 9999 SCT035 03/M06 Q1016
TAF LTCF 241640Z 2418/2503 05009KT 9999 SCT030
       
LTAL 241150Z 29010KT 240V320 9999 FEW010 BKN025 BKN080 05/M00 Q1019
TAF LTAL 241340Z 2415/2424 29012KT 8000 FEW012 SCT030 BKN090
       
LTAN 241650Z 02012KT 9999 SCT040 10/01 Q1020 NOSIG
TAF LTAN 241640Z 2418/2503 35009KT 9999 SCT040
       
TAF LTBN 241340Z 2415/2424 31008KT 9999 SCT035 
     BECMG 2416/2418 CAVOK
       
LTCR 241450Z 26006KT CAVOK 20/06 Q1013
TAF LTCR 241340Z 2415/2424 33012KT CAVOK
       
LTAP 241650Z 03014KT 9999 SCT021 BKN030 04/02 Q1021 RESHRA NOSIG RMK RWY23 04016KT
TAF LTAP 241640Z 2418/2518 02012KT 9999 FEW015 BKN030 
     BECMG 2418/2421 VRB02KT 
     TEMPO 2418/2422 -SHRA 
     PROB30 
     TEMPO 2422/2502 -SHRA 
     BECMG 2501/2505 SCT040 
     PROB30 
     TEMPO 2503/2506 4000 BR
       
LTFE 241650Z 26010KT 9999 FEW035 17/09 Q1020 NOSIG RMK RWY10 27011KT
TAF LTFE 241640Z 2418/2518 VRB02KT CAVOK 
     BECMG 2508/2510 26012KT FEW035 
     BECMG 2515/2518 VRB02KT CAVOK
       
LTCK 241350Z 27007KT 9999 FEW040 16/M01 Q1014
TAF LTCK 241340Z 2415/2424 25008KT 9999 FEW040
       
LTAJ 241650Z 24005KT CAVOK 13/00 Q1015 NOSIG RMK RWY10 28006KT
TAF LTAJ 241640Z 2418/2518 VRB02KT CAVOK
       
LTFJ 241650Z 21003KT CAVOK 11/02 Q1024 NOSIG RMK RWY24 21004KT 180V240
TAF LTFJ 241640Z 2418/2518 18005KT CAVOK 
     PROB30 
     TEMPO 2502/2505 4000 BR SCT020 
     BECMG 2511/2514 02010KT
       
TAF LTBX 241340Z 2415/2424 26008KT 9999 SCT035 
     BECMG 2418/2421 15010KT CAVOK
       
LTCL 241250Z 23005KT 170V280 9999 FEW040 20/03 Q1013
TAF LTCL 241340Z 2415/2424 23006KT CAVOK 
     BECMG 2415/2417 02012KT
       
TAF LTCM 241340Z 2415/2424 28018KT 9999 SCT032
       
TAF LTAV 241340Z 2415/2424 31008KT 9999 SCT035 
     BECMG 2416/2418 CAVOK
       
LTFC 241650Z 34004KT 290V020 9999 FEW035 12/01 Q1020 RMK RWY23 30005KT
TAF LTFC 241640Z 2418/2518 34012KT 9999 SCT035 
     BECMG 2418/2421 VRB02KT CAVOK 
     BECMG 2506/2510 SCT035 
     BECMG 2515/2518 CAVOK
       
LTAW 241250Z 28011KT 9999 BKN035 BKN090 13/02 Q1018
TAF LTAW 241340Z 2415/2424 07008KT 9999 SCT040 BKN100 
     TEMPO 2415/2419 -SHRA FEW030CB BKN035
       
LTBQ 241650Z 00000KT 9999 SCT035 08/06 Q1024 NOSIG
TAF LTBQ 241640Z 2418/2503 VRB02KT 9999 SCT040 
     BECMG 2418/2420 CAVOK
       
LTCG 241650Z 28010KT 4500 SHRA BKN013 BKN028 08/07 Q1025 BECMG TL1800 8000 NSW SCT010 BKN028
TAF LTCG 241640Z 2418/2518 25008KT 8000 -SHRA SCT010 BKN028 
     TEMPO 2419/2423 FEW020CB BKN028 
     BECMG 2423/2502 SCT035 BKN100
       
LTCI 241650Z VRB02KT CAVOK 09/00 Q1015 NOSIG
TAF LTCI 241640Z 2418/2503 VRB02KT CAVOK
       
TAF LTBP 241340Z 2415/2424 29010KT 9999 FEW040 SCT100 
     BECMG 2415/2418 14008KT 
     BECMG 2418/2421 CAVOK
       
LTBR 241650Z 36006KT CAVOK 09/04 Q1023 NOSIG RMK RWY07 35005KT
TAF LTBR 241640Z 2418/2518 VRB02KT CAVOK 
     BECMG 2421/2501 3500 BR 
     PROB30 2502/2506 1100 BCFG 
     BECMG 2506/2509 9999 NSW FEW035